Time;durP1;ratioP1;P1;durP2;ratioP2;P2;SDS_P1;SDS_P2;PMS_P1;PMS_P2;Temp;Humidity;BMP_temperature;BMP_pressure;BME280_temperature;BME280_humidity;BME280_pressure;Samples;Min_cycle;Max_cycle;Signal;HPM_P1;HPM_P2
2022/08/20 00:00:16;;;;;;;;;;;;;;;18.23;56.61;100714.94;4424550;32;20058;-66
2022/08/20 00:02:43;;;;;;;;;;;;;;;18.20;56.91;100715.09;4425319;32;20035;-65
2022/08/20 00:05:09;;;;;;;;;;;;;;;18.19;56.85;100707.84;4422338;32;19993;-65
2022/08/20 00:07:35;;;;;;;;;;;;;;;18.15;57.30;100704.41;4424369;32;19949;-66
2022/08/20 00:10:01;;;;;;;;;;;;;;;18.09;57.61;100703.50;4424535;32;20416;-69
2022/08/20 00:12:27;;;;;;;;;;;;;;;18.10;57.66;100697.31;4423249;32;20311;-67
2022/08/20 00:14:52;;;;;;;;;;;;;;;18.09;57.93;100703.50;4422393;32;19977;-65
2022/08/20 00:17:18;;;;;;;;;;;;;;;18.05;58.17;100702.94;4427527;32;19961;-69
2022/08/20 00:19:43;;;;;;;;;;;;;;;18.03;58.44;100699.78;4424808;32;19953;-68
2022/08/20 00:22:09;;;;;;;;;;;;;;;17.96;59.13;100695.28;4423026;32;19953;-66
2022/08/20 00:24:34;;;;;;;;;;;;;;;18.05;58.95;100692.34;4423090;32;19993;-66
2022/08/20 00:27:01;;;;;;;;;;;;;;;18.05;59.16;100685.84;4417561;32;19954;-70
2022/08/20 00:29:26;;;;;;;;;;;;;;;17.99;59.33;100696.34;4415641;32;20313;-67
2022/08/20 00:31:52;;;;;;;;;;;;;;;17.95;59.86;100685.19;4421717;32;20315;-69
2022/08/20 00:34:17;;;;;;;;;;;;;;;17.99;59.59;100688.59;4424651;32;19992;-68
2022/08/20 00:36:43;;;;;;;;;;;;;;;17.96;59.79;100685.94;4422878;32;20017;-67
2022/08/20 00:39:09;;;;;;;;;;;;;;;17.95;59.88;100679.47;4422792;32;19957;-66
2022/08/20 00:41:34;;;;;;;;;;;;;;;17.92;60.14;100680.47;4423116;32;19954;-65
2022/08/20 00:44:06;;;;;;;;;;;;;;;17.88;60.43;100679.84;4425988;32;20337;-67
2022/08/20 00:46:31;;;;;;;;;;;;;;;17.88;60.41;100683.50;4415809;32;20328;-66
2022/08/20 00:48:57;;;;;;;;;;;;;;;17.91;60.54;100666.72;4421993;32;20248;-67
2022/08/20 00:51:29;;;;;;;;;;;;;;;17.82;61.07;100668.38;4424035;32;19949;-67
2022/08/20 00:53:57;;;;;;;;;;;;;;;17.84;60.95;100668.69;4424825;32;20373;-69
2022/08/20 00:56:22;;;;;;;;;;;;;;;17.91;60.88;100663.87;4423129;32;19954;-67
2022/08/20 00:58:49;;;;;;;;;;;;;;;17.89;60.94;100667.19;4427519;32;20019;-67
2022/08/20 01:01:16;;;;;;;;;;;;;;;17.91;61.02;100661.03;4422999;32;19989;-67
2022/08/20 01:03:42;;;;;;;;;;;;;;;17.85;61.19;100664.53;4420893;32;19961;-69
2022/08/20 01:06:10;;;;;;;;;;;;;;;17.91;60.98;100666.72;4422838;32;19957;-66
2022/08/20 01:08:37;;;;;;;;;;;;;;;17.86;61.39;100656.81;4423199;32;20349;-66
2022/08/20 01:11:08;;;;;;;;;;;;;;;17.85;61.31;100653.16;4422356;32;19958;-66
2022/08/20 01:13:34;;;;;;;;;;;;;;;17.87;61.55;100652.66;4425662;32;19990;-69
2022/08/20 01:16:02;;;;;;;;;;;;;;;17.83;62.67;100644.31;4420452;32;20000;-65
2022/08/20 01:18:27;;;;;;;;;;;;;;;17.79;63.55;100652.28;4419407;32;19955;-67
2022/08/20 01:20:56;;;;;;;;;;;;;;;17.89;63.40;100650.13;4422293;32;19990;-66
2022/08/20 01:23:39;;;;;;;;;;;;;;;17.96;63.13;100651.78;4424752;32;19961;-68
2022/08/20 01:26:14;;;;;;;;;;;;;;;18.02;63.14;100646.97;4421117;32;20019;-66
2022/08/20 01:31:18;;;;;;;;;;;;;;;18.20;62.53;100647.53;3954344;32;15780411;-69
2022/08/20 01:33:44;;;;;;;;;;;;;;;18.12;62.60;100646.38;4437664;32;20537;-67
2022/08/20 01:36:11;;;;;;;;;;;;;;;18.05;62.84;100645.97;4439856;32;19976;-68
2022/08/20 01:38:37;;;;;;;;;;;;;;;18.23;62.14;100654.31;4440746;32;19958;-65
2022/08/20 01:41:23;;;;;;;;;;;;;;;18.14;62.29;100655.22;4439141;32;20402;-67
2022/08/20 01:43:49;;;;;;;;;;;;;;;18.27;61.92;100654.88;4440090;32;20333;-66
2022/08/20 01:46:15;;;;;;;;;;;;;;;18.19;62.11;100653.72;4440019;32;20552;-66
2022/08/20 01:48:41;;;;;;;;;;;;;;;18.09;62.12;100655.91;4441029;32;19976;-67
2022/08/20 01:51:15;;;;;;;;;;;;;;;18.06;62.17;100658.94;4438713;32;19970;-66
2022/08/20 01:53:43;;;;;;;;;;;;;;;18.17;61.72;100659.12;4441101;32;20366;-67
2022/08/20 01:56:12;;;;;;;;;;;;;;;18.21;61.78;100663.34;4439994;32;20037;-67
2022/08/20 01:58:40;;;;;;;;;;;;;;;18.12;62.12;100676.91;4437763;32;20007;-67
2022/08/20 02:01:17;;;;;;;;;;;;;;;18.09;62.23;100664.44;4439409;32;20431;-68
2022/08/20 02:03:43;;;;;;;;;;;;;;;18.09;62.27;100667.28;4440678;32;20559;-66
2022/08/20 02:06:09;;;;;;;;;;;;;;;18.03;62.54;100663.56;4441183;32;20000;-65
2022/08/20 02:08:34;;;;;;;;;;;;;;;17.98;62.65;100661.38;4436567;32;19945;-65
2022/08/20 02:11:00;;;;;;;;;;;;;;;18.01;62.44;100660.41;4436768;32;20053;-66
2022/08/20 02:13:25;;;;;;;;;;;;;;;17.91;62.73;100649.63;4438822;32;20334;-66
2022/08/20 02:15:51;;;;;;;;;;;;;;;17.95;62.64;100647.37;4439105;32;19999;-65
2022/08/20 02:18:16;;;;;;;;;;;;;;;17.97;62.55;100644.81;4438982;32;19972;-67
2022/08/20 02:20:43;;;;;;;;;;;;;;;17.86;62.76;100646.19;4434491;32;20015;-67
2022/08/20 02:23:10;;;;;;;;;;;;;;;17.85;63.06;100640.97;4437951;32;19989;-66
2022/08/20 02:25:36;;;;;;;;;;;;;;;17.93;62.64;100639.31;4438034;32;19953;-68
2022/08/20 02:28:05;;;;;;;;;;;;;;;17.84;63.05;100640.22;4439448;32;20023;-65
2022/08/20 02:30:33;;;;;;;;;;;;;;;17.85;63.02;100632.44;4438633;32;20009;-66
2022/08/20 02:33:00;;;;;;;;;;;;;;;17.85;63.06;100630.37;4436909;32;19963;-65
2022/08/20 02:35:26;;;;;;;;;;;;;;;17.73;63.29;100637.16;4426134;32;19969;-66
2022/08/20 02:37:52;;;;;;;;;;;;;;;17.72;63.18;100629.91;4438276;32;20439;-65
2022/08/20 02:40:18;;;;;;;;;;;;;;;17.72;63.54;100634.78;4438559;32;20295;-66
2022/08/20 02:42:44;;;;;;;;;;;;;;;17.65;63.48;100626.66;4427250;32;19997;-67
2022/08/20 02:45:12;;;;;;;;;;;;;;;17.52;64.23;100621.22;4430830;32;19965;-68
2022/08/20 02:47:38;;;;;;;;;;;;;;;17.45;64.33;100612.28;4428120;32;19964;-66
2022/08/20 02:50:06;;;;;;;;;;;;;;;17.35;64.57;100610.78;4426652;32;19965;-69
2022/08/20 02:52:31;;;;;;;;;;;;;;;17.27;64.73;100604.69;4427837;32;20043;-66
2022/08/20 02:54:57;;;;;;;;;;;;;;;17.29;64.63;100596.47;4428045;32;19950;-66
2022/08/20 02:57:22;;;;;;;;;;;;;;;17.24;64.93;100604.88;4429304;32;20032;-69
2022/08/20 02:59:50;;;;;;;;;;;;;;;17.12;65.14;100606.72;4425595;32;20398;-67
2022/08/20 03:02:16;;;;;;;;;;;;;;;17.05;65.49;100614.84;4427203;32;20305;-67
2022/08/20 03:04:42;;;;;;;;;;;;;;;16.97;65.88;100610.81;4428543;32;19953;-65
2022/08/20 03:07:09;;;;;;;;;;;;;;;16.87;66.25;100609.28;4429766;32;20466;-69
2022/08/20 03:09:35;;;;;;;;;;;;;;;16.89;66.32;100618.91;4428686;32;19961;-67
2022/08/20 03:12:01;;;;;;;;;;;;;;;16.89;66.29;100613.22;4428401;32;20025;-65
2022/08/20 03:14:27;;;;;;;;;;;;;;;16.99;66.11;100619.63;4427960;32;19950;-65
2022/08/20 03:16:53;;;;;;;;;;;;;;;17.00;66.24;100619.13;4428789;32;19999;-65
2022/08/20 03:19:18;;;;;;;;;;;;;;;17.12;65.67;100615.25;4426338;32;20805;-67
2022/08/20 03:21:43;;;;;;;;;;;;;;;17.15;65.62;100607.81;4424486;32;19980;-67
2022/08/20 03:24:09;;;;;;;;;;;;;;;17.14;65.63;100612.72;4427509;32;20030;-66
2022/08/20 03:26:34;;;;;;;;;;;;;;;17.17;65.46;100611.75;4430198;32;19965;-66
2022/08/20 03:29:00;;;;;;;;;;;;;;;17.22;65.16;100608.22;4428679;32;20011;-67
2022/08/20 03:31:25;;;;;;;;;;;;;;;17.24;65.07;100605.66;4429065;32;20330;-66
2022/08/20 03:33:51;;;;;;;;;;;;;;;17.17;65.24;100611.75;4429306;32;20022;-66
2022/08/20 03:36:18;;;;;;;;;;;;;;;17.19;65.42;100614.91;4428734;32;19985;-65
2022/08/20 03:38:43;;;;;;;;;;;;;;;17.10;65.77;100603.59;4426517;32;20000;-67
2022/08/20 03:41:09;;;;;;;;;;;;;;;17.19;65.38;100597.84;4429074;32;20336;-65
2022/08/20 03:43:36;;;;;;;;;;;;;;;17.29;64.99;100593.63;4427589;32;19957;-65
2022/08/20 03:46:02;;;;;;;;;;;;;;;17.34;65.02;100592.94;4427354;32;19993;-69
2022/08/20 03:48:28;;;;;;;;;;;;;;;17.41;64.55;100594.59;4425451;32;20015;-69
2022/08/20 03:50:55;;;;;;;;;;;;;;;17.60;64.14;100596.81;4428784;32;19971;-65
2022/08/20 03:53:21;;;;;;;;;;;;;;;17.63;64.00;100593.00;4424448;32;20376;-67
2022/08/20 03:55:47;;;;;;;;;;;;;;;17.81;63.33;100592.00;4428946;32;20341;-68
2022/08/20 03:58:13;;;;;;;;;;;;;;;17.77;63.47;100594.28;4428340;32;19988;-67
2022/08/20 04:00:41;;;;;;;;;;;;;;;17.80;63.34;100587.59;4427101;32;20009;-65
2022/08/20 04:03:07;;;;;;;;;;;;;;;17.68;63.43;100591.53;4426597;32;20047;-65
2022/08/20 04:05:35;;;;;;;;;;;;;;;17.84;63.15;100580.44;4427705;32;19996;-65
2022/08/20 04:08:01;;;;;;;;;;;;;;;17.92;63.00;100588.56;4427142;32;19993;-67
2022/08/20 04:10:27;;;;;;;;;;;;;;;17.95;62.86;100584.72;4426902;32;19968;-68
2022/08/20 04:12:53;;;;;;;;;;;;;;;17.89;63.01;100579.72;4427979;32;19949;-66
2022/08/20 04:15:18;;;;;;;;;;;;;;;17.97;62.97;100587.88;4426491;32;19957;-67
2022/08/20 04:17:45;;;;;;;;;;;;;;;18.03;62.87;100580.19;4426567;32;20489;-64
2022/08/20 04:20:12;;;;;;;;;;;;;;;18.03;62.91;100580.97;4425321;32;20001;-67
2022/08/20 04:22:38;;;;;;;;;;;;;;;17.96;62.95;100575.69;4426068;32;20065;-64
2022/08/20 04:25:05;;;;;;;;;;;;;;;18.08;62.55;100576.66;4428805;32;19961;-64
2022/08/20 04:27:31;;;;;;;;;;;;;;;18.09;62.53;100579.00;4429889;32;19945;-65
2022/08/20 04:29:59;;;;;;;;;;;;;;;18.12;62.42;100578.00;4427220;32;20306;-66
2022/08/20 04:32:24;;;;;;;;;;;;;;;18.10;62.61;100586.25;4429506;32;19972;-65
2022/08/20 04:34:51;;;;;;;;;;;;;;;18.04;62.61;100593.91;4426397;32;19945;-69
2022/08/20 04:37:18;;;;;;;;;;;;;;;17.77;63.53;100592.19;4429035;32;20024;-68
2022/08/20 04:39:44;;;;;;;;;;;;;;;17.68;64.08;100589.44;4427790;32;19981;-66
2022/08/20 04:42:09;;;;;;;;;;;;;;;17.70;63.96;100580.41;4428841;32;20002;-66
2022/08/20 04:44:35;;;;;;;;;;;;;;;17.73;63.81;100587.97;4426914;32;19986;-65
2022/08/20 04:47:01;;;;;;;;;;;;;;;17.80;63.76;100587.59;4424156;32;19953;-67
2022/08/20 04:49:26;;;;;;;;;;;;;;;17.84;63.54;100597.50;4425649;32;20008;-66
2022/08/20 04:51:53;;;;;;;;;;;;;;;17.89;63.35;100598.88;4423350;32;19962;-69
2022/08/20 04:54:18;;;;;;;;;;;;;;;17.96;62.99;100603.37;4426697;32;20699;-64
2022/08/20 04:56:44;;;;;;;;;;;;;;;18.07;62.64;100610.03;4425378;32;20128;-66
2022/08/20 04:59:09;;;;;;;;;;;;;;;18.15;62.49;100613.25;4427873;32;20118;-66
2022/08/20 05:01:35;;;;;;;;;;;;;;;18.18;62.43;100610.22;4428038;32;19949;-65
2022/08/20 05:04:00;;;;;;;;;;;;;;;18.09;62.51;100606.69;4425926;32;20343;-66
2022/08/20 05:06:28;;;;;;;;;;;;;;;18.09;62.57;100612.38;4427939;32;21567;-67
2022/08/20 05:08:54;;;;;;;;;;;;;;;18.09;62.40;100612.38;4425697;32;19968;-67
2022/08/20 05:11:20;;;;;;;;;;;;;;;18.08;62.52;100619.34;4428452;32;20005;-66
2022/08/20 05:13:46;;;;;;;;;;;;;;;17.99;62.75;100614.56;4427918;32;19968;-67
2022/08/20 05:16:11;;;;;;;;;;;;;;;18.00;62.49;100607.59;4427084;32;19969;-67
2022/08/20 05:18:37;;;;;;;;;;;;;;;17.94;62.80;100609.56;4426182;32;19962;-66
2022/08/20 05:21:04;;;;;;;;;;;;;;;17.92;62.74;100614.97;4426020;32;20409;-66
2022/08/20 05:23:31;;;;;;;;;;;;;;;17.91;62.88;100613.37;4428583;32;20395;-64
2022/08/20 05:25:57;;;;;;;;;;;;;;;18.00;62.72;100621.03;4426257;32;19950;-64
2022/08/20 05:28:24;;;;;;;;;;;;;;;17.91;63.27;100624.00;4424897;32;19963;-69
2022/08/20 05:30:51;;;;;;;;;;;;;;;17.84;63.12;100616.63;4424370;32;20321;-68
2022/08/20 05:33:18;;;;;;;;;;;;;;;17.98;63.04;100610.13;4425374;32;20008;-66
2022/08/20 05:35:45;;;;;;;;;;;;;;;17.99;62.93;100614.56;4425549;32;19993;-64
2022/08/20 05:38:14;;;;;;;;;;;;;;;17.91;62.92;100618.31;4424343;32;20522;-66
2022/08/20 05:40:40;;;;;;;;;;;;;;;18.02;62.80;100609.94;4425145;32;20341;-67
2022/08/20 05:43:06;;;;;;;;;;;;;;;18.01;62.91;100614.84;4426901;32;20317;-64
2022/08/20 05:45:32;;;;;;;;;;;;;;;18.08;62.40;100623.00;4426497;32;20016;-68
2022/08/20 05:47:58;;;;;;;;;;;;;;;18.14;62.33;100621.03;4424787;32;19976;-65
2022/08/20 05:50:24;;;;;;;;;;;;;;;18.27;61.89;100621.50;4423934;32;20000;-65
2022/08/20 05:52:50;;;;;;;;;;;;;;;18.27;61.98;100621.50;4426036;32;20760;-68
2022/08/20 05:55:15;;;;;;;;;;;;;;;18.37;61.50;100625.81;4428118;32;20101;-66
2022/08/20 05:57:41;;;;;;;;;;;;;;;18.57;61.25;100619.38;4425421;32;20033;-64
2022/08/20 06:00:10;;;;;;;;;;;;;;;18.58;60.97;100606.69;4426081;32;20024;-67
2022/08/20 06:05:21;;;;;;;;;;;;;;;18.79;60.35;100608.28;4425873;32;19954;-65
2022/08/20 06:07:49;;;;;;;;;;;;;;;18.95;60.28;100605.66;4424941;32;19953;-68
2022/08/20 06:10:15;;;;;;;;;;;;;;;18.95;60.18;100604.84;4426179;32;19983;-67
2022/08/20 06:12:43;;;;;;;;;;;;;;;18.91;60.44;100598.59;4427035;32;19957;-65
2022/08/20 06:15:08;;;;;;;;;;;;;;;18.83;60.80;100603.94;4427545;32;20001;-67
2022/08/20 06:17:34;;;;;;;;;;;;;;;18.82;60.96;100605.22;4428377;32;19972;-66
2022/08/20 06:20:01;;;;;;;;;;;;;;;18.93;60.98;100604.59;4428250;32;19949;-65
2022/08/20 06:22:26;;;;;;;;;;;;;;;18.75;61.71;100608.47;4428672;32;20379;-64
2022/08/20 06:24:52;;;;;;;;;;;;;;;18.77;61.54;100599.44;4428891;32;20387;-64
2022/08/20 06:27:18;;;;;;;;;;;;;;;18.71;62.01;100593.66;4430718;32;19961;-68
2022/08/20 06:29:45;;;;;;;;;;;;;;;18.61;62.55;100592.25;4428063;32;20001;-65
2022/08/20 06:32:10;;;;;;;;;;;;;;;18.67;62.54;100590.25;4430383;32;19949;-67
2022/08/20 06:34:36;;;;;;;;;;;;;;;18.60;63.09;100593.53;4429917;32;19960;-65
2022/08/20 06:37:01;;;;;;;;;;;;;;;18.68;63.13;100597.50;4426991;32;20620;-65
2022/08/20 06:39:29;;;;;;;;;;;;;;;18.77;63.31;100591.66;4428191;32;19962;-66
2022/08/20 06:41:57;;;;;;;;;;;;;;;18.91;62.83;100584.34;4428161;32;19966;-68
2022/08/20 06:44:23;;;;;;;;;;;;;;;19.08;62.70;100585.28;4428749;32;20036;-65
2022/08/20 06:46:48;;;;;;;;;;;;;;;19.21;62.48;100595.06;4429064;32;20211;-64
2022/08/20 06:49:13;;;;;;;;;;;;;;;19.11;62.84;100595.72;4426463;32;19997;-67
2022/08/20 06:51:39;;;;;;;;;;;;;;;19.21;62.73;100586.50;4429751;32;20001;-65
2022/08/20 06:54:04;;;;;;;;;;;;;;;19.08;63.27;100585.28;4429077;32;19997;-64
2022/08/20 06:56:31;;;;;;;;;;;;;;;19.25;62.67;100584.22;4430266;32;19964;-68
2022/08/20 06:58:56;;;;;;;;;;;;;;;19.42;62.30;100581.59;4413914;32;19961;-65
2022/08/20 07:01:23;;;;;;;;;;;;;;;19.41;62.42;100594.28;4430119;32;19964;-66
2022/08/20 07:03:49;;;;;;;;;;;;;;;19.26;62.91;100587.84;4427763;32;19946;-67
2022/08/20 07:06:16;;;;;;;;;;;;;;;19.32;62.88;100580.94;4431573;32;19989;-66
2022/08/20 07:08:42;;;;;;;;;;;;;;;19.13;63.58;100582.53;4428399;32;20054;-65
2022/08/20 07:11:08;;;;;;;;;;;;;;;19.10;63.79;100585.59;4426206;32;20292;-64
2022/08/20 07:13:36;;;;;;;;;;;;;;;19.21;63.59;100583.63;4429927;32;19941;-64
2022/08/20 07:16:05;;;;;;;;;;;;;;;19.26;63.56;100573.56;4430014;32;20004;-68
2022/08/20 07:18:31;;;;;;;;;;;;;;;19.36;63.30;100589.31;4429366;32;19957;-68
2022/08/20 07:20:56;;;;;;;;;;;;;;;19.38;63.13;100576.09;4428764;32;20274;-67
2022/08/20 07:23:23;;;;;;;;;;;;;;;19.35;63.32;100574.25;4429299;32;20491;-65
2022/08/20 07:25:49;;;;;;;;;;;;;;;19.39;63.31;100583.34;4428558;32;20043;-67
2022/08/20 07:28:16;;;;;;;;;;;;;;;19.41;63.32;100565.72;4427977;32;19997;-65
2022/08/20 07:33:28;;;;;;;;;;;;;;;19.50;63.27;100579.84;4428770;32;19985;-66
2022/08/20 07:35:55;;;;;;;;;;;;;;;19.61;63.11;100577.88;4428207;32;19953;-65
2022/08/20 07:38:23;;;;;;;;;;;;;;;19.90;62.28;100587.47;4427052;32;20327;-69
2022/08/20 07:40:50;;;;;;;;;;;;;;;19.92;62.34;100582.03;4426664;32;19946;-67
2022/08/20 07:43:15;;;;;;;;;;;;;;;20.12;61.68;100594.16;4430821;32;19981;-68
2022/08/20 07:45:41;;;;;;;;;;;;;;;20.33;61.35;100589.13;4428724;32;20406;-66
2022/08/20 07:48:08;;;;;;;;;;;;;;;20.50;60.74;100598.59;4429612;32;20227;-64
2022/08/20 07:50:34;;;;;;;;;;;;;;;20.72;60.14;100590.13;4426404;32;20408;-67
2022/08/20 07:53:00;;;;;;;;;;;;;;;20.79;59.93;100587.59;4426341;32;19953;-69
2022/08/20 07:55:25;;;;;;;;;;;;;;;20.97;59.36;100592.91;4428715;32;20004;-68
2022/08/20 07:57:51;;;;;;;;;;;;;;;21.10;58.78;100595.28;4427316;32;19992;-68
2022/08/20 08:00:18;;;;;;;;;;;;;;;21.07;58.95;100597.09;4423838;32;19988;-65
2022/08/20 08:02:44;;;;;;;;;;;;;;;21.39;58.10;100598.47;4428420;32;19965;-65
2022/08/20 08:05:09;;;;;;;;;;;;;;;21.61;57.52;100587.09;4427212;32;20232;-65
2022/08/20 08:07:37;;;;;;;;;;;;;;;21.64;56.98;100591.75;4425230;32;20000;-66
2022/08/20 08:10:04;;;;;;;;;;;;;;;21.83;56.39;100577.75;4429344;32;20397;-68
2022/08/20 08:12:35;;;;;;;;;;;;;;;22.06;55.16;100593.63;4428008;32;19970;-64
2022/08/20 08:15:02;;;;;;;;;;;;;;;22.01;55.18;100588.69;4427171;32;20333;-65
2022/08/20 08:17:30;;;;;;;;;;;;;;;21.96;55.34;100588.72;4427890;32;20361;-65
2022/08/20 08:19:56;;;;;;;;;;;;;;;22.31;54.63;100589.72;4427359;32;19971;-70
2022/08/20 08:22:21;;;;;;;;;;;;;;;22.67;53.55;100587.84;4426396;32;20032;-68
2022/08/20 08:24:47;;;;;;;;;;;;;;;23.16;52.36;100586.84;4416918;32;20373;-65
2022/08/20 08:27:15;;;;;;;;;;;;;;;23.23;51.69;100597.81;4426614;32;20355;-69
2022/08/20 08:29:42;;;;;;;;;;;;;;;23.48;51.06;100608.91;4424143;32;19961;-66
2022/08/20 08:32:07;;;;;;;;;;;;;;;23.23;51.48;100580.56;4428550;32;19960;-65
2022/08/20 08:34:34;;;;;;;;;;;;;;;23.11;51.77;100585.56;4426100;32;19989;-65
2022/08/20 08:37:02;;;;;;;;;;;;;;;22.74;52.68;100581.56;4429241;32;19996;-64
2022/08/20 08:39:29;;;;;;;;;;;;;;;22.36;53.64;100580.31;4426051;32;19964;-65
2022/08/20 08:41:57;;;;;;;;;;;;;;;22.51;53.77;100586.59;4425826;32;20310;-68
2022/08/20 08:44:26;;;;;;;;;;;;;;;22.54;53.33;100594.13;4427141;32;19986;-65
2022/08/20 08:46:55;;;;;;;;;;;;;;;22.76;52.59;100584.66;4425042;32;20021;-66
2022/08/20 08:49:23;;;;;;;;;;;;;;;22.81;52.06;100587.53;4425508;32;20410;-67
2022/08/20 08:51:54;;;;;;;;;;;;;;;23.05;51.81;100576.22;4426583;32;19949;-65
2022/08/20 08:54:23;;;;;;;;;;;;;;;23.36;51.09;100577.91;4427704;32;20040;-67
2022/08/20 08:56:50;;;;;;;;;;;;;;;23.39;50.54;100580.50;4426981;32;19994;-66
2022/08/20 08:59:15;;;;;;;;;;;;;;;23.57;49.93;100576.22;4423597;32;20394;-68
2022/08/20 09:01:44;;;;;;;;;;;;;;;23.47;49.87;100577.84;4426273;32;19957;-65
2022/08/20 09:04:10;;;;;;;;;;;;;;;23.57;49.58;100587.72;4427736;32;20012;-65
2022/08/20 09:06:36;;;;;;;;;;;;;;;23.45;49.87;100586.22;4425148;32;19957;-65
2022/08/20 09:09:03;;;;;;;;;;;;;;;23.52;49.96;100582.78;4425915;32;19984;-66
2022/08/20 09:11:29;;;;;;;;;;;;;;;23.46;49.76;100585.69;4424621;32;19964;-66
2022/08/20 09:13:55;;;;;;;;;;;;;;;23.73;49.29;100583.94;4425879;32;20000;-68
2022/08/20 09:16:22;;;;;;;;;;;;;;;23.81;49.04;100579.19;4425936;32;19997;-66
2022/08/20 09:18:48;;;;;;;;;;;;;;;23.90;48.84;100584.56;4425758;32;19982;-68
2022/08/20 09:21:13;;;;;;;;;;;;;;;24.21;47.97;100580.44;4426397;32;19954;-65
2022/08/20 09:23:39;;;;;;;;;;;;;;;24.45;46.94;100578.34;4426327;32;20327;-67
2022/08/20 09:26:05;;;;;;;;;;;;;;;24.53;46.42;100590.03;4423317;32;20004;-66
2022/08/20 09:28:30;;;;;;;;;;;;;;;24.72;45.78;100570.75;4426489;32;20697;-69
2022/08/20 09:30:56;;;;;;;;;;;;;;;24.77;45.29;100585.09;4425892;32;19961;-68
2022/08/20 09:33:21;;;;;;;;;;;;;;;24.88;44.59;100584.19;4425613;32;19981;-66
2022/08/20 09:35:47;;;;;;;;;;;;;;;25.17;44.55;100584.06;4414589;32;19996;-69
2022/08/20 09:38:12;;;;;;;;;;;;;;;25.40;44.17;100586.69;4427318;32;19968;-70
2022/08/20 09:40:38;;;;;;;;;;;;;;;25.67;43.27;100589.13;4423411;32;19987;-69
2022/08/20 09:43:04;;;;;;;;;;;;;;;25.92;42.74;100584.81;4426810;32;19963;-67
2022/08/20 09:45:30;;;;;;;;;;;;;;;26.31;41.90;100592.81;4424747;32;20005;-68
2022/08/20 09:47:56;;;;;;;;;;;;;;;26.63;41.02;100588.56;4425602;32;20327;-68
2022/08/20 09:50:21;;;;;;;;;;;;;;;26.31;40.89;100582.06;4424454;32;19993;-65
2022/08/20 09:52:49;;;;;;;;;;;;;;;25.80;41.91;100588.44;4428448;32;20071;-68
2022/08/20 09:57:50;;;;;;;;;;;;;;;25.89;41.71;100585.13;3954994;32;15725410;-68
2022/08/20 10:00:16;;;;;;;;;;;;;;;25.69;41.17;100591.47;4432272;32;20384;-65
2022/08/20 10:02:42;;;;;;;;;;;;;;;25.80;40.34;100597.06;4434654;32;20356;-65
2022/08/20 10:05:09;;;;;;;;;;;;;;;26.11;39.76;100585.56;4432655;32;20322;-66
2022/08/20 10:07:36;;;;;;;;;;;;;;;26.61;39.25;100576.00;4431269;32;20287;-68
2022/08/20 10:10:02;;;;;;;;;;;;;;;26.84;38.82;100575.03;4429961;32;19995;-67
2022/08/20 10:12:28;;;;;;;;;;;;;;;26.97;38.09;100577.16;4433825;32;20341;-69
2022/08/20 10:14:54;;;;;;;;;;;;;;;26.94;37.69;100589.81;4435741;32;19985;-65
2022/08/20 10:17:20;;;;;;;;;;;;;;;27.10;37.62;100580.81;4435897;32;20027;-68
2022/08/20 10:19:45;;;;;;;;;;;;;;;27.25;37.38;100585.22;4432368;32;20393;-65
2022/08/20 10:22:11;;;;;;;;;;;;;;;27.09;36.95;100579.22;4431713;32;19950;-65
2022/08/20 10:24:36;;;;;;;;;;;;;;;27.48;36.77;100574.75;4434139;32;19946;-66
2022/08/20 10:27:02;;;;;;;;;;;;;;;27.62;36.25;100568.34;4431594;32;20024;-65
2022/08/20 10:29:28;;;;;;;;;;;;;;;27.16;37.10;100572.75;4432933;32;20113;-69
2022/08/20 10:31:55;;;;;;;;;;;;;;;27.00;36.39;100561.59;4434800;32;20009;-66
2022/08/20 10:34:22;;;;;;;;;;;;;;;26.78;36.46;100559.94;4434981;32;20506;-65
2022/08/20 10:36:47;;;;;;;;;;;;;;;26.69;36.83;100580.56;4431838;32;20280;-65
2022/08/20 10:39:13;;;;;;;;;;;;;;;26.63;36.32;100582.78;4430846;32;20008;-66
2022/08/20 10:41:39;;;;;;;;;;;;;;;27.04;35.71;100567.78;4432501;32;19993;-65
2022/08/20 10:44:04;;;;;;;;;;;;;;;27.26;35.50;100581.00;4431050;32;19958;-67
2022/08/20 10:46:30;;;;;;;;;;;;;;;27.17;36.32;100568.56;4432732;32;19968;-68
2022/08/20 10:48:55;;;;;;;;;;;;;;;28.12;35.04;100564.22;4431101;32;20031;-67
2022/08/20 10:51:21;;;;;;;;;;;;;;;28.57;34.31;100568.31;4430464;32;19997;-66
2022/08/20 10:53:46;;;;;;;;;;;;;;;28.96;33.38;100573.75;4432465;32;20220;-69
2022/08/20 10:56:12;;;;;;;;;;;;;;;29.24;32.63;100570.09;4432728;32;19989;-66
2022/08/20 10:58:37;;;;;;;;;;;;;;;28.98;32.67;100576.88;4431503;32;20313;-65
2022/08/20 11:01:03;;;;;;;;;;;;;;;28.92;32.56;100582.06;4432037;32;20000;-67
2022/08/20 11:03:28;;;;;;;;;;;;;;;28.31;33.58;100561.88;4432303;32;19953;-66
2022/08/20 11:05:54;;;;;;;;;;;;;;;28.47;33.47;100567.25;4431142;32;19994;-66
2022/08/20 11:08:19;;;;;;;;;;;;;;;28.73;33.70;100569.19;4423793;32;19949;-69
2022/08/20 11:10:44;;;;;;;;;;;;;;;28.58;33.69;100569.88;4418505;32;20354;-64
2022/08/20 11:13:11;;;;;;;;;;;;;;;29.40;32.07;100586.19;4420682;32;20340;-69
2022/08/20 11:15:38;;;;;;;;;;;;;;;29.53;32.05;100571.53;4421071;32;19958;-67
2022/08/20 11:18:04;;;;;;;;;;;;;;;29.29;31.82;100580.72;4422212;32;20295;-65
2022/08/20 11:20:30;;;;;;;;;;;;;;;28.13;33.16;100581.03;4421389;32;20197;-65
2022/08/20 11:22:56;;;;;;;;;;;;;;;27.68;34.18;100582.66;4420472;32;20012;-68
2022/08/20 11:25:22;;;;;;;;;;;;;;;27.17;35.45;100576.44;4421549;32;20461;-69
2022/08/20 11:27:49;;;;;;;;;;;;;;;26.89;35.57;100582.03;4420595;32;19989;-65
2022/08/20 11:30:18;;;;;;;;;;;;;;;27.13;34.90;100578.91;4418885;32;19976;-68
2022/08/20 11:32:44;;;;;;;;;;;;;;;27.37;35.10;100577.88;4421191;32;19957;-67
2022/08/20 11:35:10;;;;;;;;;;;;;;;27.25;34.42;100583.13;4422006;32;19949;-68
2022/08/20 11:37:36;;;;;;;;;;;;;;;26.95;35.15;100571.91;4417548;32;20424;-68
2022/08/20 11:40:02;;;;;;;;;;;;;;;26.86;35.60;100586.81;4422104;32;19958;-65
2022/08/20 11:42:27;;;;;;;;;;;;;;;27.16;34.41;100590.09;4417206;32;19954;-67
2022/08/20 11:44:53;;;;;;;;;;;;;;;27.49;34.18;100596.53;4418818;32;20011;-65
2022/08/20 11:47:21;;;;;;;;;;;;;;;27.80;33.24;100590.53;4419053;32;19993;-68
2022/08/20 11:49:55;;;;;;;;;;;;;;;28.24;32.47;100601.00;4418464;32;20012;-64
2022/08/20 11:52:20;;;;;;;;;;;;;;;28.58;32.16;100595.12;4422555;32;20390;-67
2022/08/20 11:54:45;;;;;;;;;;;;;;;29.06;31.29;100590.66;4418561;32;19996;-64
2022/08/20 11:57:11;;;;;;;;;;;;;;;29.36;30.42;100591.56;4420167;32;20003;-66
2022/08/20 11:59:38;;;;;;;;;;;;;;;30.12;28.88;100602.06;4416346;32;20021;-64
2022/08/20 12:02:03;;;;;;;;;;;;;;;30.44;28.53;100581.94;4421200;32;19977;-67
2022/08/20 12:04:30;;;;;;;;;;;;;;;30.60;28.46;100574.00;4424095;32;19986;-67
2022/08/20 12:06:55;;;;;;;;;;;;;;;29.73;29.82;100576.44;4423762;32;19993;-67
2022/08/20 12:09:21;;;;;;;;;;;;;;;29.72;30.05;100572.00;4419070;32;20193;-67
2022/08/20 12:11:46;;;;;;;;;;;;;;;29.92;29.95;100568.19;4421475;32;20276;-65
2022/08/20 12:14:11;;;;;;;;;;;;;;;29.70;29.97;100573.94;4422456;32;19949;-66
2022/08/20 12:16:37;;;;;;;;;;;;;;;29.80;28.03;100572.00;4418138;32;19991;-68
2022/08/20 12:19:03;;;;;;;;;;;;;;;30.01;27.54;100570.53;4418160;32;20016;-65
2022/08/20 12:21:28;;;;;;;;;;;;;;;30.18;27.62;100572.81;4419467;32;20346;-66
2022/08/20 12:23:54;;;;;;;;;;;;;;;29.77;27.78;100573.16;4423757;32;20000;-66
2022/08/20 12:26:20;;;;;;;;;;;;;;;29.26;28.29;100570.25;4419487;32;20395;-66
2022/08/20 12:28:45;;;;;;;;;;;;;;;29.63;27.75;100560.19;4420578;32;19957;-68
2022/08/20 12:31:10;;;;;;;;;;;;;;;29.68;28.09;100565.81;4420361;32;20110;-66
2022/08/20 12:33:36;;;;;;;;;;;;;;;30.05;27.98;100552.69;4407168;32;19989;-70
2022/08/20 12:36:01;;;;;;;;;;;;;;;30.24;27.83;100564.72;4419589;32;20009;-66
2022/08/20 12:38:28;;;;;;;;;;;;;;;29.60;28.54;100562.06;4417133;32;19989;-68
2022/08/20 12:40:53;;;;;;;;;;;;;;;29.73;28.77;100567.72;4419799;32;20370;-69